createdAt,value
2019-03-11T00:00:58.078Z,19.65
2019-03-11T00:01:57.823Z,19.63
2019-03-11T00:02:57.969Z,19.66
2019-03-11T00:03:58.128Z,19.62
2019-03-11T00:04:57.882Z,19.65
2019-03-11T00:05:57.954Z,19.62
2019-03-11T00:06:58.066Z,19.62
2019-03-11T00:07:57.940Z,19.63
2019-03-11T00:08:57.980Z,19.62
2019-03-11T00:09:58.133Z,19.62
2019-03-11T00:10:57.934Z,19.62
2019-03-11T00:11:57.978Z,19.62
2019-03-11T00:12:58.087Z,19.6
2019-03-11T00:13:57.877Z,19.61
2019-03-11T00:14:57.983Z,19.62
2019-03-11T00:15:58.109Z,19.6
2019-03-11T00:16:57.889Z,19.6
2019-03-11T00:17:58.081Z,19.6
2019-03-11T00:18:58.070Z,19.59
2019-03-11T00:19:57.944Z,19.6
2019-03-11T00:20:57.941Z,19.58
2019-03-11T00:21:58.113Z,19.58
2019-03-11T00:22:58.035Z,19.59
2019-03-11T00:23:57.970Z,19.59
2019-03-11T00:24:58.097Z,19.59
2019-03-11T00:25:58.204Z,19.59
2019-03-11T00:26:58.012Z,19.57
2019-03-11T00:27:58.084Z,19.56
2019-03-11T00:28:57.926Z,19.57
2019-03-11T00:29:57.981Z,19.57
2019-03-11T00:30:58.086Z,19.56
2019-03-11T00:31:57.903Z,19.55
2019-03-11T00:32:57.979Z,19.56
2019-03-11T00:33:58.099Z,19.56
2019-03-11T00:34:57.927Z,19.55
2019-03-11T00:35:57.973Z,19.56
2019-03-11T00:36:57.869Z,19.54
2019-03-11T00:37:57.927Z,19.54
2019-03-11T00:38:57.988Z,19.54
2019-03-11T00:39:57.834Z,19.53
2019-03-11T00:40:57.954Z,19.52
2019-03-11T00:41:58.145Z,19.52
2019-03-11T00:42:57.834Z,19.52
2019-03-11T00:43:57.990Z,19.53
2019-03-11T00:44:58.058Z,19.53
2019-03-11T00:45:57.978Z,19.51
2019-03-11T00:46:57.967Z,19.52
2019-03-11T00:48:02.950Z,19.5
2019-03-11T00:48:58.005Z,19.51
2019-03-11T00:49:57.991Z,19.48
2019-03-11T00:50:58.030Z,19.5
2019-03-11T00:51:57.863Z,19.5
2019-03-11T00:52:58.019Z,19.5
2019-03-11T00:53:58.043Z,19.47
2019-03-11T00:54:57.845Z,19.47
2019-03-11T00:55:58.110Z,19.48
2019-03-11T00:56:58.101Z,19.48
2019-03-11T00:57:57.951Z,19.45
2019-03-11T00:58:57.991Z,19.45
2019-03-11T00:59:58.053Z,19.46
2019-03-11T01:00:57.941Z,19.47
2019-03-11T01:01:59.292Z,19.45
2019-03-11T01:02:58.254Z,19.44
2019-03-11T01:03:58.014Z,19.44
2019-03-11T01:04:58.025Z,19.44
2019-03-11T01:05:57.844Z,19.44
2019-03-11T01:06:57.912Z,19.45
2019-03-11T01:07:58.055Z,19.43
2019-03-11T01:08:57.894Z,19.44
2019-03-11T01:09:58.447Z,19.43
2019-03-11T01:10:58.063Z,19.45
2019-03-11T01:11:57.893Z,19.44
2019-03-11T01:12:58.044Z,19.42
2019-03-11T01:13:58.164Z,19.41
2019-03-11T01:14:58.042Z,19.42
2019-03-11T01:15:58.049Z,19.4
2019-03-11T01:16:58.091Z,19.41
2019-03-11T01:17:57.956Z,19.4
2019-03-11T01:18:58.060Z,19.4
2019-03-11T01:19:58.111Z,19.41
2019-03-11T01:20:57.991Z,19.4
2019-03-11T01:21:58.040Z,19.39
2019-03-11T01:22:57.778Z,19.39
2019-03-11T01:23:57.947Z,19.4
2019-03-11T01:24:57.968Z,19.39
2019-03-11T01:25:57.801Z,19.39
2019-03-11T01:26:57.993Z,19.38
2019-03-11T01:27:57.959Z,19.39
2019-03-11T01:28:57.809Z,19.36
2019-03-11T01:29:57.967Z,19.38
2019-03-11T01:30:57.969Z,19.37
2019-03-11T01:31:58.198Z,19.36
2019-03-11T01:32:57.949Z,19.38
2019-03-11T01:33:58.012Z,19.37
2019-03-11T01:34:57.847Z,19.37
2019-03-11T01:35:57.969Z,19.37
2019-03-11T01:36:58.140Z,19.36
2019-03-11T01:37:57.881Z,19.36
2019-03-11T01:38:58.071Z,19.36
2019-03-11T01:39:57.958Z,19.36
2019-03-11T01:40:57.883Z,19.36
2019-03-11T01:41:58.064Z,19.36
2019-03-11T01:42:57.865Z,19.36
2019-03-11T01:43:57.923Z,19.32
2019-03-11T01:44:58.023Z,19.33
2019-03-11T01:45:57.993Z,19.32
2019-03-11T01:46:58.286Z,19.32
2019-03-11T01:47:58.049Z,19.32
2019-03-11T01:48:57.884Z,19.32
2019-03-11T01:49:57.965Z,19.31
2019-03-11T01:50:58.033Z,19.32
2019-03-11T01:51:57.907Z,19.33
2019-03-11T01:52:58.034Z,19.3
2019-03-11T01:53:58.198Z,19.29
2019-03-11T01:54:57.887Z,19.31
2019-03-11T01:55:57.965Z,19.3
2019-03-11T01:56:58.073Z,19.29
2019-03-11T01:57:57.844Z,19.28
2019-03-11T01:58:58.247Z,19.31
2019-03-11T01:59:57.813Z,19.3
2019-03-11T02:00:57.929Z,19.29
2019-03-11T02:01:58.099Z,19.29
2019-03-11T02:02:57.839Z,19.29
2019-03-11T02:03:57.919Z,19.28
2019-03-11T02:04:58.012Z,19.25
2019-03-11T02:05:57.981Z,19.27
2019-03-11T02:06:57.972Z,19.26
2019-03-11T02:07:58.022Z,19.26
2019-03-11T02:08:57.990Z,19.26
2019-03-11T02:09:58.025Z,19.27
2019-03-11T02:10:57.864Z,19.25
2019-03-11T02:11:57.880Z,19.27
2019-03-11T02:12:57.987Z,19.25
2019-03-11T02:13:57.767Z,19.25
2019-03-11T02:14:57.993Z,19.24
2019-03-11T02:15:58.144Z,19.27
2019-03-11T02:16:57.865Z,19.24
2019-03-11T02:17:57.919Z,19.25
2019-03-11T02:18:58.022Z,19.22
2019-03-11T02:19:57.824Z,19.23
2019-03-11T02:20:57.900Z,19.24
2019-03-11T02:21:57.976Z,19.22
2019-03-11T02:22:57.989Z,19.23
2019-03-11T02:23:58.264Z,19.24
2019-03-11T02:24:58.036Z,19.24
2019-03-11T02:25:57.892Z,19.22
2019-03-11T02:26:58.033Z,19.24
2019-03-11T02:27:58.043Z,19.24
2019-03-11T02:28:58.006Z,19.25
2019-03-11T02:29:57.932Z,19.22
2019-03-11T02:30:58.085Z,19.21
2019-03-11T02:31:57.859Z,19.21
2019-03-11T02:32:57.998Z,19.23
2019-03-11T02:33:57.843Z,19.21
2019-03-11T02:34:57.889Z,19.21
2019-03-11T02:35:58.307Z,19.22
2019-03-11T02:36:57.917Z,19.18
2019-03-11T02:37:57.953Z,19.2
2019-03-11T02:38:58.027Z,19.21
2019-03-11T02:39:57.916Z,19.2
2019-03-11T02:40:58.202Z,19.18
2019-03-11T02:41:58.161Z,19.18
2019-03-11T02:42:57.849Z,19.21
2019-03-11T02:43:58.018Z,19.17
2019-03-11T02:44:58.027Z,19.21
2019-03-11T02:45:57.895Z,19.18
2019-03-11T02:46:58.053Z,19.2
2019-03-11T02:47:57.842Z,19.18
2019-03-11T02:48:57.929Z,19.17
2019-03-11T02:49:58.056Z,19.2
2019-03-11T02:50:57.893Z,19.2
2019-03-11T02:51:57.865Z,19.16
2019-03-11T02:52:58.025Z,19.16
2019-03-11T02:53:57.863Z,19.16
2019-03-11T02:54:57.995Z,19.17
2019-03-11T02:55:57.998Z,19.16
2019-03-11T02:56:57.894Z,19.15
2019-03-11T02:57:57.879Z,19.17
2019-03-11T02:58:57.962Z,19.17
2019-03-11T02:59:57.848Z,19.16
2019-03-11T03:00:57.904Z,19.16
2019-03-11T03:01:58.046Z,19.13
2019-03-11T03:02:57.858Z,19.14
2019-03-11T03:03:58.006Z,19.15
2019-03-11T03:04:57.774Z,19.13
2019-03-11T03:05:57.870Z,19.12
2019-03-11T03:06:57.991Z,19.12
2019-03-11T03:07:57.867Z,19.13
2019-03-11T03:08:57.951Z,19.13
2019-03-11T03:09:57.976Z,19.09
2019-03-11T03:10:57.929Z,19.13
2019-03-11T03:11:57.976Z,19.13
2019-03-11T03:12:58.103Z,19.1
2019-03-11T03:13:57.848Z,19.12
2019-03-11T03:14:58.021Z,19.11
2019-03-11T03:15:57.842Z,19.11
2019-03-11T03:16:57.949Z,19.1
2019-03-11T03:17:58.027Z,19.09
2019-03-11T03:18:57.887Z,19.09
2019-03-11T03:19:57.978Z,19.11
2019-03-11T03:20:58.321Z,19.09
2019-03-11T03:21:57.850Z,19.11
2019-03-11T03:22:58.042Z,19.09
2019-03-11T03:23:58.108Z,19.09
2019-03-11T03:24:57.882Z,19.08
2019-03-11T03:25:57.882Z,19.08
2019-03-11T03:26:58.116Z,19.09
2019-03-11T03:27:58.888Z,19.09
2019-03-11T03:28:57.897Z,19.09
2019-03-11T03:29:58.039Z,19.08
2019-03-11T03:30:58.015Z,19.08
2019-03-11T03:31:58.010Z,19.09
2019-03-11T03:32:57.857Z,19.09
2019-03-11T03:33:57.935Z,19.07
2019-03-11T03:34:57.967Z,19.08
2019-03-11T03:35:57.735Z,19.06
2019-03-11T03:36:57.915Z,19.07
2019-03-11T03:37:57.895Z,19.07
2019-03-11T03:38:57.787Z,19.09
2019-03-11T03:39:57.867Z,19.06
2019-03-11T03:40:57.925Z,19.06
2019-03-11T03:41:57.904Z,19.05
2019-03-11T03:42:59.454Z,19.03
2019-03-11T03:43:57.949Z,19.03
2019-03-11T03:44:57.835Z,19.05
2019-03-11T03:45:57.916Z,19.05
2019-03-11T03:46:59.010Z,19.05
2019-03-11T03:47:57.822Z,19.02
2019-03-11T03:48:57.927Z,19.05
2019-03-11T03:49:57.984Z,19.06
2019-03-11T03:50:57.852Z,19.02
2019-03-11T03:51:58.140Z,19.02
2019-03-11T03:52:57.975Z,19.01
2019-03-11T03:53:57.963Z,19.01
2019-03-11T03:54:57.919Z,19.01
2019-03-11T03:55:58.033Z,19.05
2019-03-11T03:56:57.913Z,19.02
2019-03-11T03:57:58.045Z,19.02
2019-03-11T03:58:57.792Z,19.01
2019-03-11T03:59:57.903Z,19.03
2019-03-11T04:00:57.975Z,19.01
2019-03-11T04:01:58.064Z,19
2019-03-11T04:02:57.856Z,19.01
2019-03-11T04:03:58.183Z,19.01
2019-03-11T04:04:58.258Z,19.01
2019-03-11T04:05:57.887Z,19
2019-03-11T04:06:58.228Z,18.99
2019-03-11T04:07:57.844Z,18.99
2019-03-11T04:08:57.914Z,19.01
2019-03-11T04:09:57.994Z,19.01
2019-03-11T04:10:57.866Z,19.01
2019-03-11T04:11:58.007Z,18.98
2019-03-11T04:12:58.045Z,18.98
2019-03-11T04:13:57.971Z,19
2019-03-11T04:14:58.032Z,18.99
2019-03-11T04:15:58.093Z,18.97
2019-03-11T04:16:57.951Z,18.97
2019-03-11T04:17:58.046Z,18.98
2019-03-11T04:18:57.909Z,18.98
2019-03-11T04:19:57.967Z,18.95
2019-03-11T04:20:58.113Z,18.98
2019-03-11T04:21:57.788Z,18.98
2019-03-11T04:22:57.921Z,18.96
2019-03-11T04:23:58.085Z,18.96
2019-03-11T04:24:57.857Z,18.96
2019-03-11T04:25:58.280Z,18.95
2019-03-11T04:26:57.949Z,18.96
2019-03-11T04:27:57.834Z,18.96
2019-03-11T04:28:57.905Z,18.96
2019-03-11T04:29:57.989Z,18.97
2019-03-11T04:30:57.908Z,18.96
2019-03-11T04:31:57.934Z,18.96
2019-03-11T04:32:57.851Z,18.94
2019-03-11T04:33:57.806Z,18.96
2019-03-11T04:34:57.923Z,18.95
2019-03-11T04:35:57.860Z,18.93
2019-03-11T04:36:57.816Z,18.94
2019-03-11T04:37:57.961Z,18.93
2019-03-11T04:38:57.801Z,18.93
2019-03-11T04:39:57.824Z,18.94
2019-03-11T04:40:57.945Z,18.91
2019-03-11T04:41:57.795Z,18.91
2019-03-11T04:42:57.847Z,18.96
2019-03-11T04:43:57.931Z,18.94
2019-03-11T04:44:57.844Z,18.94
2019-03-11T04:45:57.839Z,18.96
2019-03-11T04:46:58.054Z,18.94
2019-03-11T04:47:57.838Z,18.95
2019-03-11T04:48:57.987Z,18.95
2019-03-11T04:50:00.904Z,18.97
2019-03-11T04:50:57.774Z,18.96
2019-03-11T04:51:57.876Z,18.97
2019-03-11T04:52:57.983Z,18.95
2019-03-11T04:53:57.821Z,18.97
2019-03-11T04:54:57.934Z,18.98
2019-03-11T04:55:57.753Z,18.96
2019-03-11T04:56:57.913Z,18.99
2019-03-11T04:57:57.862Z,18.99
2019-03-11T04:58:57.725Z,19.03
2019-03-11T04:59:57.894Z,19.03
2019-03-11T05:00:58.011Z,19.06
2019-03-11T05:01:57.758Z,19.07
2019-03-11T05:02:57.854Z,19.08
2019-03-11T05:03:57.941Z,19.12
2019-03-11T05:04:57.902Z,19.12
2019-03-11T05:05:57.813Z,19.13
2019-03-11T05:06:57.997Z,19.15
2019-03-11T05:07:57.813Z,19.16
2019-03-11T05:08:58.696Z,19.17
2019-03-11T05:09:57.921Z,19.2
2019-03-11T05:10:57.815Z,19.21
2019-03-11T05:11:58.028Z,19.23
2019-03-11T05:12:57.789Z,19.24
2019-03-11T05:13:57.763Z,19.24
2019-03-11T05:14:57.951Z,19.28
2019-03-11T05:15:57.756Z,19.29
2019-03-11T05:16:57.813Z,19.3
2019-03-11T05:17:57.951Z,19.33
2019-03-11T05:18:58.031Z,19.33
2019-03-11T05:19:57.885Z,19.36
2019-03-11T05:20:57.906Z,19.38
2019-03-11T05:21:57.758Z,19.37
2019-03-11T05:22:57.926Z,19.4
2019-03-11T05:23:58.009Z,19.41
2019-03-11T05:24:57.809Z,19.43
2019-03-11T05:25:57.869Z,19.44
2019-03-11T05:26:57.961Z,19.47
2019-03-11T05:27:57.800Z,19.47
2019-03-11T05:28:57.958Z,19.48
2019-03-11T05:29:58.027Z,19.5
2019-03-11T05:30:57.975Z,19.51
2019-03-11T05:31:57.856Z,19.52
2019-03-11T05:32:57.963Z,19.55
2019-03-11T05:33:57.852Z,19.54
2019-03-11T05:34:57.936Z,19.55
2019-03-11T05:35:58.251Z,19.59
2019-03-11T05:36:57.856Z,19.6
2019-03-11T05:37:57.984Z,19.62
2019-03-11T05:38:57.720Z,19.62
2019-03-11T05:39:57.850Z,19.63
2019-03-11T05:40:57.921Z,19.62
2019-03-11T05:41:57.839Z,19.67
2019-03-11T05:42:57.805Z,19.65
2019-03-11T05:43:57.998Z,19.68
2019-03-11T05:44:57.765Z,19.7
2019-03-11T05:45:57.874Z,19.69
2019-03-11T05:46:58.051Z,19.7
2019-03-11T05:47:57.758Z,19.73
2019-03-11T05:48:57.878Z,19.71
2019-03-11T05:49:57.880Z,19.66
2019-03-11T05:50:58.062Z,19.62
2019-03-11T05:51:57.862Z,19.56
2019-03-11T05:52:58.005Z,19.5
2019-03-11T05:53:57.836Z,19.44
2019-03-11T05:54:57.880Z,19.41
2019-03-11T05:55:58.836Z,19.33
2019-03-11T05:56:59.436Z,19.29
2019-03-11T05:57:57.842Z,19.29
2019-03-11T05:58:57.938Z,19.28
2019-03-11T05:59:57.902Z,19.3
2019-03-11T06:00:57.863Z,19.3
2019-03-11T06:01:57.927Z,19.32
2019-03-11T06:02:57.813Z,19.37
2019-03-11T06:03:57.924Z,19.37
2019-03-11T06:04:57.760Z,19.4
2019-03-11T06:05:57.814Z,19.42
2019-03-11T06:06:57.936Z,19.45
2019-03-11T06:07:57.870Z,19.46
2019-03-11T06:08:57.825Z,19.47
2019-03-11T06:09:57.969Z,19.51
2019-03-11T06:10:57.769Z,19.52
2019-03-11T06:11:57.838Z,19.52
2019-03-11T06:12:58.052Z,19.51
2019-03-11T06:13:57.836Z,19.54
2019-03-11T06:14:57.867Z,19.56
2019-03-11T06:15:57.698Z,19.56
2019-03-11T06:16:57.848Z,19.57
2019-03-11T06:17:57.934Z,19.6
2019-03-11T06:18:57.827Z,19.62
2019-03-11T06:19:57.828Z,19.62
2019-03-11T06:20:57.983Z,19.67
2019-03-11T06:21:57.827Z,19.69
2019-03-11T06:22:57.833Z,19.72
2019-03-11T06:23:57.926Z,19.73
2019-03-11T06:24:57.965Z,19.75
2019-03-11T06:25:57.860Z,19.76
2019-03-11T06:26:57.898Z,19.79
2019-03-11T06:27:57.741Z,19.83
2019-03-11T06:28:57.906Z,19.85
2019-03-11T06:29:57.996Z,19.86
2019-03-11T06:30:57.756Z,19.87
2019-03-11T06:31:57.853Z,19.89
2019-03-11T06:32:57.928Z,19.9
2019-03-11T06:33:58.083Z,19.91
2019-03-11T06:34:57.998Z,19.9
2019-03-11T06:35:57.784Z,19.94
2019-03-11T06:36:57.845Z,19.94
2019-03-11T06:37:57.982Z,19.95
2019-03-11T06:39:06.466Z,19.94
2019-03-11T06:39:57.823Z,19.94
2019-03-11T06:40:57.976Z,19.95
2019-03-11T06:41:57.926Z,19.96
2019-03-11T06:42:58.298Z,19.97
2019-03-11T06:43:58.003Z,19.95
2019-03-11T06:44:57.922Z,19.97
2019-03-11T06:45:57.879Z,19.96
2019-03-11T06:46:57.732Z,19.96
2019-03-11T06:47:57.803Z,19.99
2019-03-11T06:48:57.918Z,19.99
2019-03-11T06:49:57.728Z,20
2019-03-11T06:50:57.865Z,19.99
2019-03-11T06:51:57.874Z,20.03
2019-03-11T06:52:57.837Z,20.01
2019-03-11T06:53:57.896Z,20.04
2019-03-11T06:54:58.075Z,20.02
2019-03-11T06:55:58.183Z,20.04
2019-03-11T06:56:57.924Z,20.04
2019-03-11T06:57:57.961Z,20.06
2019-03-11T06:58:57.719Z,20.05
2019-03-11T06:59:57.929Z,20.06
2019-03-11T07:00:57.834Z,20.04
2019-03-11T07:01:57.805Z,20.05
2019-03-11T07:02:57.909Z,20.06
2019-03-11T07:03:57.865Z,20.07
2019-03-11T07:04:57.792Z,20.05
2019-03-11T07:05:57.927Z,20.05
2019-03-11T07:06:57.726Z,20.07
2019-03-11T07:07:57.933Z,20.04
2019-03-11T07:08:57.949Z,20.06
2019-03-11T07:09:57.777Z,20.05
2019-03-11T07:10:57.880Z,20.07
2019-03-11T07:11:57.895Z,20.09
2019-03-11T07:12:57.776Z,20.06
2019-03-11T07:13:57.858Z,20.06
2019-03-11T07:14:57.674Z,20.05
2019-03-11T07:15:57.804Z,20.07
2019-03-11T07:16:57.864Z,20.06
2019-03-11T07:17:57.701Z,20.05
2019-03-11T07:18:57.795Z,20.05
2019-03-11T07:19:57.864Z,20.07
2019-03-11T07:20:57.738Z,20.07
2019-03-11T07:21:57.774Z,20.07
2019-03-11T07:22:57.922Z,20.05
2019-03-11T07:23:57.703Z,20.05
2019-03-11T07:24:57.926Z,20.05
2019-03-11T07:25:57.985Z,20.05
2019-03-11T07:26:57.712Z,20.05
2019-03-11T07:27:57.880Z,20.06
2019-03-11T07:28:57.946Z,20.05
2019-03-11T07:29:57.797Z,20.04
2019-03-11T07:30:57.949Z,20.07
2019-03-11T07:31:57.852Z,20.04
2019-03-11T07:32:57.816Z,20.04
2019-03-11T07:33:57.902Z,20.04
2019-03-11T07:35:09.136Z,20.04
2019-03-11T07:35:57.873Z,20.04
2019-03-11T07:36:57.933Z,20.04
2019-03-11T07:37:58.266Z,20.03
2019-03-11T07:38:58.207Z,20.03
2019-03-11T07:39:57.938Z,20.02
2019-03-11T07:40:57.731Z,20.06
2019-03-11T07:41:57.830Z,20.04
2019-03-11T07:42:57.698Z,20.02
2019-03-11T07:43:57.811Z,20.04
2019-03-11T07:44:57.862Z,20.04
2019-03-11T07:45:57.816Z,20.04
2019-03-11T07:46:57.837Z,20.03
2019-03-11T07:47:57.913Z,20.04
2019-03-11T07:48:57.731Z,20.04
2019-03-11T07:49:57.867Z,20.04
2019-03-11T07:50:57.901Z,20.05
2019-03-11T07:51:57.751Z,20.04
2019-03-11T07:52:57.865Z,20.03
2019-03-11T07:53:57.857Z,20.02
2019-03-11T07:54:57.721Z,20.04
2019-03-11T07:55:57.934Z,20.06
2019-03-11T07:56:57.741Z,20.05
2019-03-11T07:57:57.817Z,20.07
2019-03-11T07:58:57.878Z,20.09
2019-03-11T07:59:57.947Z,20.06
2019-03-11T08:00:57.754Z,20.09
2019-03-11T08:01:57.848Z,20.1
2019-03-11T08:02:57.756Z,20.11
2019-03-11T08:03:57.836Z,20.12
2019-03-11T08:04:57.935Z,20.11
2019-03-11T08:05:57.749Z,20.13
2019-03-11T08:06:57.931Z,20.14
2019-03-11T08:07:58.485Z,20.14
2019-03-11T08:08:57.814Z,20.13
2019-03-11T08:09:57.813Z,20.15
2019-03-11T08:10:57.630Z,20.17
2019-03-11T08:11:57.881Z,20.15
2019-03-11T08:12:57.962Z,20.17
2019-03-11T08:13:57.659Z,20.18
2019-03-11T08:14:57.854Z,20.19
2019-03-11T08:15:57.844Z,20.2
2019-03-11T08:16:57.814Z,20.22
2019-03-11T08:17:57.870Z,20.25
2019-03-11T08:18:57.919Z,20.25
2019-03-11T08:19:57.690Z,20.28
2019-03-11T08:20:57.859Z,20.28
2019-03-11T08:21:57.739Z,20.27
2019-03-11T08:22:57.719Z,20.3
2019-03-11T08:23:57.928Z,20.28
2019-03-11T08:24:57.730Z,20.29
2019-03-11T08:25:57.767Z,20.3
2019-03-11T08:26:57.937Z,20.31
2019-03-11T08:27:57.786Z,20.28
2019-03-11T08:28:57.815Z,20.29
2019-03-11T08:29:59.836Z,20.32
2019-03-11T08:30:57.708Z,20.32
2019-03-11T08:31:57.732Z,20.33
2019-03-11T08:32:57.948Z,20.34
2019-03-11T08:33:57.757Z,20.34
2019-03-11T08:34:57.764Z,20.33
2019-03-11T08:35:57.708Z,20.34
2019-03-11T08:36:57.915Z,20.35
2019-03-11T08:38:05.626Z,20.35
2019-03-11T08:38:57.943Z,20.37
2019-03-11T08:39:57.831Z,20.39
2019-03-11T08:40:58.000Z,20.4
2019-03-11T08:41:57.911Z,20.4
2019-03-11T08:42:57.779Z,20.41
2019-03-11T08:43:57.889Z,20.41
2019-03-11T08:44:57.666Z,20.42
2019-03-11T08:45:57.733Z,20.41
2019-03-11T08:46:57.785Z,20.43
2019-03-11T08:47:57.745Z,20.43
2019-03-11T08:48:57.773Z,20.43
2019-03-11T08:49:57.838Z,20.43
2019-03-11T08:50:57.765Z,20.45
2019-03-11T08:51:57.796Z,20.46
2019-03-11T08:52:57.856Z,20.45
2019-03-11T08:53:57.811Z,20.47
2019-03-11T08:54:57.869Z,20.46
2019-03-11T08:55:57.873Z,20.47
2019-03-11T08:56:57.689Z,20.49
2019-03-11T08:57:57.831Z,20.47
2019-03-11T08:58:57.729Z,20.5
2019-03-11T08:59:57.687Z,20.49
2019-03-11T09:00:57.884Z,20.5
2019-03-11T09:01:57.691Z,20.53
2019-03-11T09:02:57.861Z,20.53
2019-03-11T09:03:57.806Z,20.51
2019-03-11T09:04:58.036Z,20.5
2019-03-11T09:05:57.791Z,20.53
2019-03-11T09:06:57.906Z,20.54
2019-03-11T09:07:57.803Z,20.55
2019-03-11T09:08:57.900Z,20.53
2019-03-11T09:09:57.774Z,20.54
2019-03-11T09:10:57.803Z,20.55
2019-03-11T09:11:57.985Z,20.54
2019-03-11T09:12:57.714Z,20.55
2019-03-11T09:13:57.781Z,20.54
2019-03-11T09:14:57.857Z,20.57
2019-03-11T09:15:57.804Z,20.58
2019-03-11T09:16:57.859Z,20.57
2019-03-11T09:17:57.741Z,20.58
2019-03-11T09:18:57.836Z,20.58
2019-03-11T09:19:57.932Z,20.61
2019-03-11T09:20:57.760Z,20.57
2019-03-11T09:21:57.788Z,20.59
2019-03-11T09:22:57.904Z,20.6
2019-03-11T09:23:57.703Z,20.61
2019-03-11T09:24:57.820Z,20.63
2019-03-11T09:25:57.892Z,20.62
2019-03-11T09:26:58.483Z,20.63
2019-03-11T09:27:57.821Z,20.62
2019-03-11T09:28:57.740Z,20.64
2019-03-11T09:29:57.806Z,20.65
2019-03-11T09:30:57.840Z,20.62
2019-03-11T09:31:57.738Z,20.64
2019-03-11T09:32:57.839Z,20.65
2019-03-11T09:33:57.876Z,20.64
2019-03-11T09:34:57.641Z,20.65
2019-03-11T09:35:57.803Z,20.65
2019-03-11T09:36:57.759Z,20.66
2019-03-11T09:37:57.801Z,20.66
2019-03-11T09:38:57.860Z,20.66
2019-03-11T09:39:58.544Z,20.65
2019-03-11T09:40:57.780Z,20.69
2019-03-11T09:41:57.935Z,20.66
2019-03-11T09:42:57.644Z,20.66
2019-03-11T09:43:57.873Z,20.66
2019-03-11T09:44:57.802Z,20.66
2019-03-11T09:45:57.730Z,20.7
2019-03-11T09:46:57.885Z,20.68
2019-03-11T09:47:59.562Z,20.68
2019-03-11T09:48:57.715Z,20.7
2019-03-11T09:49:57.752Z,20.69
2019-03-11T09:50:59.487Z,20.68
2019-03-11T09:51:57.814Z,20.69
2019-03-11T09:52:57.900Z,20.7
2019-03-11T09:53:57.673Z,20.7
2019-03-11T09:54:57.744Z,20.69
2019-03-11T09:55:57.781Z,20.7
2019-03-11T09:56:57.633Z,20.71
2019-03-11T09:57:57.849Z,20.7
2019-03-11T09:58:58.004Z,20.72
2019-03-11T09:59:57.685Z,20.68
2019-03-11T10:00:57.836Z,20.7
2019-03-11T10:01:57.675Z,20.72
2019-03-11T10:02:57.739Z,20.72
2019-03-11T10:03:57.936Z,20.71
2019-03-11T10:04:57.616Z,20.74
2019-03-11T10:05:57.817Z,20.74
2019-03-11T10:06:57.982Z,20.75
2019-03-11T10:07:58.709Z,20.75
2019-03-11T10:08:57.788Z,20.76
2019-03-11T10:09:57.696Z,20.75
2019-03-11T10:10:57.710Z,20.75
2019-03-11T10:11:57.840Z,20.74
2019-03-11T10:12:57.632Z,20.73
2019-03-11T10:13:57.843Z,20.74
2019-03-11T10:14:57.818Z,20.72
2019-03-11T10:15:57.699Z,20.73
2019-03-11T10:16:57.845Z,20.74
2019-03-11T10:17:57.961Z,20.72
2019-03-11T10:18:57.692Z,20.73
2019-03-11T10:19:57.812Z,20.71
2019-03-11T10:20:57.642Z,20.71
2019-03-11T10:21:57.686Z,20.72
2019-03-11T10:22:57.818Z,20.7
2019-03-11T10:23:59.641Z,20.69
2019-03-11T10:24:57.707Z,20.7
2019-03-11T10:25:57.876Z,20.71
2019-03-11T10:26:57.704Z,20.72
2019-03-11T10:27:57.820Z,20.72
2019-03-11T10:28:57.856Z,20.7
2019-03-11T10:29:57.703Z,20.71
2019-03-11T10:30:58.136Z,20.73
2019-03-11T10:31:57.850Z,20.73
2019-03-11T10:32:57.718Z,20.73
2019-03-11T10:33:57.743Z,20.76
2019-03-11T10:34:57.571Z,20.76
2019-03-11T10:35:57.781Z,20.75
2019-03-11T10:36:57.734Z,20.77
2019-03-11T10:37:57.579Z,20.79
2019-03-11T10:38:57.745Z,20.8
2019-03-11T10:39:58.165Z,20.8
2019-03-11T10:40:57.748Z,20.8
2019-03-11T10:41:57.811Z,20.85
2019-03-11T10:42:57.866Z,20.84
2019-03-11T10:43:57.676Z,20.85
2019-03-11T10:44:57.816Z,20.86
2019-03-11T10:45:57.733Z,20.87
2019-03-11T10:46:57.719Z,20.89
2019-03-11T10:47:57.747Z,20.9
2019-03-11T10:48:57.653Z,20.9
2019-03-11T10:49:57.698Z,20.92
2019-03-11T10:50:58.637Z,20.9
2019-03-11T10:51:57.617Z,20.92
2019-03-11T10:52:57.801Z,20.93
2019-03-11T10:53:57.832Z,20.94
2019-03-11T10:54:57.649Z,20.95
2019-03-11T10:56:00.211Z,20.96
2019-03-11T10:56:57.869Z,20.99
2019-03-11T10:57:57.702Z,21
2019-03-11T10:58:57.772Z,21
2019-03-11T10:59:57.900Z,21
2019-03-11T11:00:57.669Z,21.03
2019-03-11T11:01:57.875Z,21.02
2019-03-11T11:02:57.598Z,21.02
2019-03-11T11:03:57.759Z,21.04
2019-03-11T11:04:57.765Z,21.06
2019-03-11T11:05:57.746Z,21.04
2019-03-11T11:06:57.749Z,21.07
2019-03-11T11:07:57.906Z,21.06
2019-03-11T11:08:58.020Z,21.09
2019-03-11T11:09:57.799Z,21.06
2019-03-11T11:10:57.767Z,21.09
2019-03-11T11:11:57.664Z,21.1
2019-03-11T11:12:57.817Z,21.1
2019-03-11T11:13:57.649Z,21.1
2019-03-11T11:14:57.685Z,21.1
2019-03-11T11:15:57.878Z,21.1
2019-03-11T11:16:57.698Z,21.11
2019-03-11T11:17:57.947Z,21.13
2019-03-11T11:18:57.588Z,21.11
2019-03-11T11:20:04.279Z,21.15
2019-03-11T11:20:57.885Z,21.13
2019-03-11T11:21:57.793Z,21.17
2019-03-11T11:22:57.822Z,21.18
2019-03-11T11:23:57.932Z,21.17
2019-03-11T11:24:57.617Z,21.17
2019-03-11T11:25:57.871Z,21.18
2019-03-11T11:26:58.113Z,21.18
2019-03-11T11:27:57.669Z,21.18
2019-03-11T11:28:57.858Z,21.19
2019-03-11T11:29:57.640Z,21.2
2019-03-11T11:30:57.718Z,21.21
2019-03-11T11:31:57.797Z,21.24
2019-03-11T11:32:58.010Z,21.23
2019-03-11T11:33:57.721Z,21.24
2019-03-11T11:34:57.902Z,21.27
2019-03-11T11:35:57.846Z,21.24
2019-03-11T11:36:57.716Z,21.3
2019-03-11T11:37:58.265Z,21.32
2019-03-11T11:38:57.707Z,21.32
2019-03-11T11:39:57.744Z,21.35
2019-03-11T11:40:57.552Z,21.37
2019-03-11T11:41:57.751Z,21.35
2019-03-11T11:42:58.002Z,21.34
2019-03-11T11:43:57.640Z,21.35
2019-03-11T11:44:57.748Z,21.36
2019-03-11T11:45:57.597Z,21.33
2019-03-11T11:46:57.773Z,21.35
2019-03-11T11:47:57.786Z,21.35
2019-03-11T11:48:57.630Z,21.35
2019-03-11T11:49:57.678Z,21.33
2019-03-11T11:50:57.810Z,21.34
2019-03-11T11:51:57.666Z,21.34
2019-03-11T11:52:57.710Z,21.33
2019-03-11T11:53:57.907Z,21.35
2019-03-11T11:54:57.648Z,21.33
2019-03-11T11:55:58.464Z,21.32
2019-03-11T11:56:57.658Z,21.32
2019-03-11T11:57:57.991Z,21.33
2019-03-11T11:58:57.752Z,21.32
2019-03-11T11:59:57.586Z,21.32
2019-03-11T12:00:57.714Z,21.32
2019-03-11T12:02:04.550Z,21.35
2019-03-11T12:02:57.794Z,21.34
2019-03-11T12:03:57.721Z,21.33
2019-03-11T12:04:57.770Z,21.33
2019-03-11T12:05:57.712Z,21.33
2019-03-11T12:06:57.734Z,21.34
2019-03-11T12:07:57.817Z,21.33
2019-03-11T12:08:57.658Z,21.33
2019-03-11T12:09:57.802Z,21.33
2019-03-11T12:10:57.807Z,21.34
2019-03-11T12:11:57.653Z,21.34
2019-03-11T12:12:57.812Z,21.32
2019-03-11T12:13:57.793Z,21.33
2019-03-11T12:14:57.781Z,21.32
2019-03-11T12:15:57.804Z,21.32
2019-03-11T12:16:57.684Z,21.32
2019-03-11T12:17:57.689Z,21.32
2019-03-11T12:18:57.682Z,21.32
2019-03-11T12:19:57.741Z,21.32
2019-03-11T12:20:57.710Z,21.32
2019-03-11T12:21:57.670Z,21.3
2019-03-11T12:22:57.840Z,21.32
2019-03-11T12:23:57.742Z,21.33
2019-03-11T12:24:57.606Z,21.3
2019-03-11T12:25:57.670Z,21.32
2019-03-11T12:26:57.728Z,21.32
2019-03-11T12:27:58.871Z,21.3
2019-03-11T12:28:57.696Z,21.31
2019-03-11T12:29:57.751Z,21.31
2019-03-11T12:30:57.607Z,21.29
2019-03-11T12:31:57.753Z,21.29
2019-03-11T12:32:57.771Z,21.29
2019-03-11T12:33:57.715Z,21.29
2019-03-11T12:34:57.800Z,21.29
2019-03-11T12:35:57.604Z,21.3
2019-03-11T12:36:57.658Z,21.29
2019-03-11T12:37:57.980Z,21.29
2019-03-11T12:38:57.710Z,21.3
2019-03-11T12:39:57.765Z,21.32
2019-03-11T12:40:57.852Z,21.31
2019-03-11T12:41:57.819Z,21.31
2019-03-11T12:42:57.794Z,21.33
2019-03-11T12:43:57.552Z,21.31
2019-03-11T12:44:57.751Z,21.35
2019-03-11T12:45:57.808Z,21.34
2019-03-11T12:46:57.655Z,21.33
2019-03-11T12:47:57.691Z,21.34
2019-03-11T12:48:57.608Z,21.35
2019-03-11T12:49:57.625Z,21.38
2019-03-11T12:50:57.861Z,21.36
2019-03-11T12:51:57.641Z,21.38
2019-03-11T12:52:57.673Z,21.4
2019-03-11T12:53:57.863Z,21.4
2019-03-11T12:54:57.658Z,21.42
2019-03-11T12:55:57.710Z,21.42